sensor_id;sensor_type;location;lat;lon;timestamp;P1;durP1;ratioP1;P2;durP2;ratioP2
11957;SDS011;6039;52.576;13.348;2023-03-01T00:02:26;20.10;;;11.00;;
11957;SDS011;6039;52.576;13.348;2023-03-01T00:07:30;19.50;;;9.83;;
11957;SDS011;6039;52.576;13.348;2023-03-01T00:12:36;20.20;;;9.83;;
11957;SDS011;6039;52.576;13.348;2023-03-01T00:17:40;19.03;;;8.83;;
11957;SDS011;6039;52.576;13.348;2023-03-01T00:22:44;17.37;;;8.53;;
11957;SDS011;6039;52.576;13.348;2023-03-01T00:27:51;17.53;;;9.57;;
11957;SDS011;6039;52.576;13.348;2023-03-01T00:32:55;16.07;;;8.27;;
11957;SDS011;6039;52.576;13.348;2023-03-01T00:37:59;18.70;;;9.10;;
11957;SDS011;6039;52.576;13.348;2023-03-01T00:43:06;17.10;;;9.30;;
11957;SDS011;6039;52.576;13.348;2023-03-01T00:48:10;15.73;;;8.33;;
11957;SDS011;6039;52.576;13.348;2023-03-01T00:53:14;19.13;;;9.70;;
11957;SDS011;6039;52.576;13.348;2023-03-01T00:58:21;23.33;;;11.60;;
11957;SDS011;6039;52.576;13.348;2023-03-01T01:03:25;30.00;;;12.17;;
11957;SDS011;6039;52.576;13.348;2023-03-01T01:08:29;23.77;;;11.20;;
11957;SDS011;6039;52.576;13.348;2023-03-01T01:13:36;21.80;;;11.17;;
11957;SDS011;6039;52.576;13.348;2023-03-01T01:18:40;26.23;;;11.83;;
11957;SDS011;6039;52.576;13.348;2023-03-01T01:23:53;22.60;;;11.73;;
11957;SDS011;6039;52.576;13.348;2023-03-01T01:29:01;21.07;;;11.33;;
11957;SDS011;6039;52.576;13.348;2023-03-01T01:34:07;24.97;;;11.50;;
11957;SDS011;6039;52.576;13.348;2023-03-01T01:39:12;23.60;;;11.30;;
11957;SDS011;6039;52.576;13.348;2023-03-01T01:44:20;20.77;;;9.90;;
11957;SDS011;6039;52.576;13.348;2023-03-01T01:49:27;23.47;;;11.17;;
11957;SDS011;6039;52.576;13.348;2023-03-01T01:54:37;18.90;;;9.60;;
11957;SDS011;6039;52.576;13.348;2023-03-01T01:59:47;20.03;;;10.40;;
11957;SDS011;6039;52.576;13.348;2023-03-01T02:04:55;19.00;;;10.27;;
11957;SDS011;6039;52.576;13.348;2023-03-01T02:10:10;19.07;;;10.30;;
11957;SDS011;6039;52.576;13.348;2023-03-01T02:15:16;24.77;;;11.33;;
11957;SDS011;6039;52.576;13.348;2023-03-01T02:20:21;23.80;;;10.87;;
11957;SDS011;6039;52.576;13.348;2023-03-01T02:25:34;22.00;;;9.20;;
11957;SDS011;6039;52.576;13.348;2023-03-01T02:30:43;16.73;;;9.47;;
11957;SDS011;6039;52.576;13.348;2023-03-01T02:36:03;24.23;;;10.60;;
11957;SDS011;6039;52.576;13.348;2023-03-01T02:41:11;19.20;;;9.90;;
11957;SDS011;6039;52.576;13.348;2023-03-01T02:46:21;21.03;;;10.43;;
11957;SDS011;6039;52.576;13.348;2023-03-01T02:51:31;17.37;;;9.43;;
11957;SDS011;6039;52.576;13.348;2023-03-01T02:56:43;20.53;;;9.70;;
11957;SDS011;6039;52.576;13.348;2023-03-01T03:01:51;17.23;;;8.93;;
11957;SDS011;6039;52.576;13.348;2023-03-01T03:06:55;20.87;;;9.80;;
11957;SDS011;6039;52.576;13.348;2023-03-01T03:11:59;18.87;;;9.47;;
11957;SDS011;6039;52.576;13.348;2023-03-01T03:17:06;17.47;;;8.90;;
11957;SDS011;6039;52.576;13.348;2023-03-01T03:22:10;18.50;;;8.27;;
11957;SDS011;6039;52.576;13.348;2023-03-01T03:27:14;18.57;;;8.50;;
11957;SDS011;6039;52.576;13.348;2023-03-01T03:32:20;18.37;;;9.07;;
11957;SDS011;6039;52.576;13.348;2023-03-01T03:37:24;16.80;;;8.13;;
11957;SDS011;6039;52.576;13.348;2023-03-01T03:42:41;16.53;;;8.10;;
11957;SDS011;6039;52.576;13.348;2023-03-01T03:47:47;16.23;;;8.23;;
11957;SDS011;6039;52.576;13.348;2023-03-01T03:52:51;20.60;;;8.77;;
11957;SDS011;6039;52.576;13.348;2023-03-01T03:57:59;16.67;;;8.63;;
11957;SDS011;6039;52.576;13.348;2023-03-01T04:03:09;16.20;;;7.73;;
11957;SDS011;6039;52.576;13.348;2023-03-01T04:08:14;18.10;;;8.48;;
11957;SDS011;6039;52.576;13.348;2023-03-01T04:13:20;14.30;;;7.10;;
11957;SDS011;6039;52.576;13.348;2023-03-01T04:18:27;15.93;;;7.60;;
11957;SDS011;6039;52.576;13.348;2023-03-01T04:23:31;16.77;;;7.73;;
11957;SDS011;6039;52.576;13.348;2023-03-01T04:28:36;11.27;;;6.50;;
11957;SDS011;6039;52.576;13.348;2023-03-01T04:33:46;14.17;;;6.83;;
11957;SDS011;6039;52.576;13.348;2023-03-01T04:38:51;20.63;;;8.03;;
11957;SDS011;6039;52.576;13.348;2023-03-01T04:43:55;12.73;;;6.60;;
11957;SDS011;6039;52.576;13.348;2023-03-01T04:49:02;13.77;;;7.30;;
11957;SDS011;6039;52.576;13.348;2023-03-01T04:54:07;14.63;;;7.13;;
11957;SDS011;6039;52.576;13.348;2023-03-01T04:59:11;16.37;;;7.53;;
11957;SDS011;6039;52.576;13.348;2023-03-01T05:04:21;16.53;;;7.70;;
11957;SDS011;6039;52.576;13.348;2023-03-01T05:09:25;15.73;;;8.40;;
11957;SDS011;6039;52.576;13.348;2023-03-01T05:14:29;13.63;;;7.67;;
11957;SDS011;6039;52.576;13.348;2023-03-01T05:19:35;17.67;;;8.40;;
11957;SDS011;6039;52.576;13.348;2023-03-01T05:24:42;14.33;;;8.10;;
11957;SDS011;6039;52.576;13.348;2023-03-01T05:29:46;13.70;;;7.57;;
11957;SDS011;6039;52.576;13.348;2023-03-01T05:34:53;17.57;;;8.60;;
11957;SDS011;6039;52.576;13.348;2023-03-01T05:39:57;16.57;;;8.23;;
11957;SDS011;6039;52.576;13.348;2023-03-01T05:45:01;14.83;;;8.30;;
11957;SDS011;6039;52.576;13.348;2023-03-01T05:50:15;18.53;;;8.60;;
11957;SDS011;6039;52.576;13.348;2023-03-01T05:55:21;18.47;;;7.77;;
11957;SDS011;6039;52.576;13.348;2023-03-01T06:00:25;17.17;;;7.87;;
11957;SDS011;6039;52.576;13.348;2023-03-01T06:05:32;19.80;;;9.27;;
11957;SDS011;6039;52.576;13.348;2023-03-01T06:10:36;15.60;;;8.00;;
11957;SDS011;6039;52.576;13.348;2023-03-01T06:15:40;18.80;;;8.87;;
11957;SDS011;6039;52.576;13.348;2023-03-01T06:20:55;23.30;;;9.63;;
11957;SDS011;6039;52.576;13.348;2023-03-01T06:25:59;22.17;;;9.60;;
11957;SDS011;6039;52.576;13.348;2023-03-01T06:31:10;19.10;;;9.73;;
11957;SDS011;6039;52.576;13.348;2023-03-01T06:36:16;19.23;;;8.50;;
11957;SDS011;6039;52.576;13.348;2023-03-01T06:41:21;21.50;;;9.17;;
11957;SDS011;6039;52.576;13.348;2023-03-01T06:46:25;17.70;;;10.40;;
11957;SDS011;6039;52.576;13.348;2023-03-01T06:51:32;25.43;;;11.27;;
11957;SDS011;6039;52.576;13.348;2023-03-01T06:56:36;18.67;;;10.63;;
11957;SDS011;6039;52.576;13.348;2023-03-01T07:01:40;21.30;;;10.57;;
11957;SDS011;6039;52.576;13.348;2023-03-01T07:06:46;21.53;;;10.97;;
11957;SDS011;6039;52.576;13.348;2023-03-01T07:11:55;23.70;;;11.60;;
11957;SDS011;6039;52.576;13.348;2023-03-01T07:16:59;18.47;;;10.60;;
11957;SDS011;6039;52.576;13.348;2023-03-01T07:22:06;21.00;;;11.63;;
11957;SDS011;6039;52.576;13.348;2023-03-01T07:27:10;21.47;;;10.70;;
11957;SDS011;6039;52.576;13.348;2023-03-01T07:43:19;24.53;;;11.33;;
11957;SDS011;6039;52.576;13.348;2023-03-01T07:48:23;17.10;;;10.10;;
11957;SDS011;6039;52.576;13.348;2023-03-01T07:53:30;19.10;;;9.80;;
11957;SDS011;6039;52.576;13.348;2023-03-01T07:58:34;20.90;;;10.43;;
11957;SDS011;6039;52.576;13.348;2023-03-01T08:03:53;20.70;;;10.30;;
11957;SDS011;6039;52.576;13.348;2023-03-01T08:09:00;21.73;;;10.37;;
11957;SDS011;6039;52.576;13.348;2023-03-01T08:14:13;20.10;;;9.90;;
11957;SDS011;6039;52.576;13.348;2023-03-01T08:19:17;19.20;;;9.03;;
11957;SDS011;6039;52.576;13.348;2023-03-01T08:24:24;17.03;;;9.37;;
11957;SDS011;6039;52.576;13.348;2023-03-01T08:29:29;17.07;;;8.20;;
11957;SDS011;6039;52.576;13.348;2023-03-01T08:34:34;11.87;;;6.97;;
11957;SDS011;6039;52.576;13.348;2023-03-01T08:39:41;12.13;;;7.70;;
11957;SDS011;6039;52.576;13.348;2023-03-01T08:44:44;12.07;;;7.10;;
11957;SDS011;6039;52.576;13.348;2023-03-01T08:49:49;9.50;;;5.53;;
11957;SDS011;6039;52.576;13.348;2023-03-01T08:54:55;7.67;;;4.73;;
11957;SDS011;6039;52.576;13.348;2023-03-01T09:00:01;8.77;;;5.00;;
11957;SDS011;6039;52.576;13.348;2023-03-01T09:05:08;7.10;;;4.57;;
11957;SDS011;6039;52.576;13.348;2023-03-01T09:10:15;8.10;;;4.23;;
11957;SDS011;6039;52.576;13.348;2023-03-01T09:15:20;7.00;;;4.30;;
11957;SDS011;6039;52.576;13.348;2023-03-01T09:20:23;5.83;;;4.20;;
11957;SDS011;6039;52.576;13.348;2023-03-01T09:25:30;7.07;;;4.30;;
11957;SDS011;6039;52.576;13.348;2023-03-01T09:30:34;7.50;;;4.07;;
11957;SDS011;6039;52.576;13.348;2023-03-01T09:35:38;7.10;;;4.23;;
11957;SDS011;6039;52.576;13.348;2023-03-01T09:40:49;6.53;;;4.20;;
11957;SDS011;6039;52.576;13.348;2023-03-01T09:45:53;5.37;;;3.50;;
11957;SDS011;6039;52.576;13.348;2023-03-01T09:50:58;5.60;;;3.27;;
11957;SDS011;6039;52.576;13.348;2023-03-01T09:56:11;6.73;;;4.10;;
11957;SDS011;6039;52.576;13.348;2023-03-01T10:01:27;6.50;;;4.27;;
11957;SDS011;6039;52.576;13.348;2023-03-01T10:06:35;6.90;;;4.40;;
11957;SDS011;6039;52.576;13.348;2023-03-01T10:11:42;4.60;;;2.50;;
11957;SDS011;6039;52.576;13.348;2023-03-01T10:16:48;4.67;;;2.83;;
11957;SDS011;6039;52.576;13.348;2023-03-01T10:22:00;5.33;;;2.80;;
11957;SDS011;6039;52.576;13.348;2023-03-01T10:27:11;5.10;;;2.93;;
11957;SDS011;6039;52.576;13.348;2023-03-01T10:32:31;6.77;;;2.73;;
11957;SDS011;6039;52.576;13.348;2023-03-01T10:43:19;4.43;;;2.50;;
11957;SDS011;6039;52.576;13.348;2023-03-01T10:48:36;4.87;;;2.90;;
11957;SDS011;6039;52.576;13.348;2023-03-01T10:53:40;5.20;;;2.83;;
11957;SDS011;6039;52.576;13.348;2023-03-01T10:58:59;4.70;;;3.20;;
11957;SDS011;6039;52.576;13.348;2023-03-01T11:04:10;3.60;;;2.80;;
11957;SDS011;6039;52.576;13.348;2023-03-01T11:09:15;4.67;;;2.80;;
11957;SDS011;6039;52.576;13.348;2023-03-01T11:14:24;3.53;;;2.50;;
11957;SDS011;6039;52.576;13.348;2023-03-01T11:19:28;4.07;;;2.63;;
11957;SDS011;6039;52.576;13.348;2023-03-01T11:24:34;2.37;;;1.83;;
11957;SDS011;6039;52.576;13.348;2023-03-01T11:29:45;3.30;;;2.10;;
11957;SDS011;6039;52.576;13.348;2023-03-01T11:34:52;3.60;;;2.37;;
11957;SDS011;6039;52.576;13.348;2023-03-01T11:39:59;2.60;;;2.00;;
11957;SDS011;6039;52.576;13.348;2023-03-01T11:45:12;3.63;;;2.47;;
11957;SDS011;6039;52.576;13.348;2023-03-01T11:50:19;4.87;;;2.10;;
11957;SDS011;6039;52.576;13.348;2023-03-01T11:55:32;4.33;;;2.50;;
11957;SDS011;6039;52.576;13.348;2023-03-01T12:00:47;6.03;;;3.10;;
11957;SDS011;6039;52.576;13.348;2023-03-01T12:06:07;2.40;;;1.77;;
11957;SDS011;6039;52.576;13.348;2023-03-01T12:11:41;5.60;;;2.10;;
11957;SDS011;6039;52.576;13.348;2023-03-01T12:17:02;2.70;;;1.77;;
11957;SDS011;6039;52.576;13.348;2023-03-01T12:22:17;4.83;;;1.90;;
11957;SDS011;6039;52.576;13.348;2023-03-01T12:27:40;3.13;;;1.77;;
11957;SDS011;6039;52.576;13.348;2023-03-01T12:33:08;4.53;;;1.80;;
11957;SDS011;6039;52.576;13.348;2023-03-01T12:38:24;4.20;;;2.10;;
11957;SDS011;6039;52.576;13.348;2023-03-01T12:43:41;3.20;;;2.00;;
11957;SDS011;6039;52.576;13.348;2023-03-01T12:48:54;2.00;;;1.47;;
11957;SDS011;6039;52.576;13.348;2023-03-01T12:54:05;2.30;;;1.83;;
11957;SDS011;6039;52.576;13.348;2023-03-01T12:59:15;3.40;;;2.00;;
11957;SDS011;6039;52.576;13.348;2023-03-01T13:04:28;3.03;;;1.97;;
11957;SDS011;6039;52.576;13.348;2023-03-01T13:09:43;2.40;;;1.73;;
11957;SDS011;6039;52.576;13.348;2023-03-01T13:14:53;2.83;;;1.70;;
11957;SDS011;6039;52.576;13.348;2023-03-01T13:20:00;4.77;;;1.83;;
11957;SDS011;6039;52.576;13.348;2023-03-01T13:25:14;4.07;;;2.13;;
11957;SDS011;6039;52.576;13.348;2023-03-01T13:35:49;2.37;;;1.63;;
11957;SDS011;6039;52.576;13.348;2023-03-01T13:40:57;2.80;;;1.80;;
11957;SDS011;6039;52.576;13.348;2023-03-01T13:46:02;2.17;;;1.50;;
11957;SDS011;6039;52.576;13.348;2023-03-01T13:51:16;2.40;;;1.70;;
11957;SDS011;6039;52.576;13.348;2023-03-01T13:56:28;1.60;;;1.30;;
11957;SDS011;6039;52.576;13.348;2023-03-01T14:01:40;4.40;;;3.27;;
11957;SDS011;6039;52.576;13.348;2023-03-01T14:06:46;4.27;;;2.13;;
11957;SDS011;6039;52.576;13.348;2023-03-01T14:12:02;2.83;;;1.40;;
11957;SDS011;6039;52.576;13.348;2023-03-01T14:17:28;2.90;;;1.57;;
11957;SDS011;6039;52.576;13.348;2023-03-01T14:22:43;2.27;;;1.40;;
11957;SDS011;6039;52.576;13.348;2023-03-01T14:27:51;3.60;;;2.17;;
11957;SDS011;6039;52.576;13.348;2023-03-01T14:32:59;1.87;;;1.30;;
11957;SDS011;6039;52.576;13.348;2023-03-01T14:38:19;2.30;;;1.50;;
11957;SDS011;6039;52.576;13.348;2023-03-01T14:43:24;1.40;;;1.20;;
11957;SDS011;6039;52.576;13.348;2023-03-01T14:48:28;2.70;;;1.40;;
11957;SDS011;6039;52.576;13.348;2023-03-01T14:53:36;6.43;;;1.70;;
11957;SDS011;6039;52.576;13.348;2023-03-01T14:58:40;1.83;;;1.20;;
11957;SDS011;6039;52.576;13.348;2023-03-01T15:03:44;2.00;;;1.40;;
11957;SDS011;6039;52.576;13.348;2023-03-01T15:08:52;1.80;;;1.40;;
11957;SDS011;6039;52.576;13.348;2023-03-01T15:13:57;3.73;;;1.47;;
11957;SDS011;6039;52.576;13.348;2023-03-01T15:19:02;2.27;;;1.67;;
11957;SDS011;6039;52.576;13.348;2023-03-01T15:24:20;3.03;;;1.30;;
11957;SDS011;6039;52.576;13.348;2023-03-01T15:29:29;1.70;;;1.20;;
11957;SDS011;6039;52.576;13.348;2023-03-01T15:34:40;3.73;;;1.50;;
11957;SDS011;6039;52.576;13.348;2023-03-01T15:45:30;2.87;;;1.57;;
11957;SDS011;6039;52.576;13.348;2023-03-01T15:50:37;6.77;;;2.27;;
11957;SDS011;6039;52.576;13.348;2023-03-01T15:55:45;1.97;;;1.43;;
11957;SDS011;6039;52.576;13.348;2023-03-01T16:00:50;2.37;;;1.57;;
11957;SDS011;6039;52.576;13.348;2023-03-01T16:05:56;1.83;;;1.50;;
11957;SDS011;6039;52.576;13.348;2023-03-01T16:11:13;2.60;;;1.60;;
11957;SDS011;6039;52.576;13.348;2023-03-01T16:16:19;3.50;;;1.97;;
11957;SDS011;6039;52.576;13.348;2023-03-01T16:21:24;3.30;;;2.00;;
11957;SDS011;6039;52.576;13.348;2023-03-01T16:26:31;5.00;;;2.20;;
11957;SDS011;6039;52.576;13.348;2023-03-01T16:31:35;4.03;;;2.07;;
11957;SDS011;6039;52.576;13.348;2023-03-01T16:36:39;4.30;;;2.30;;
11957;SDS011;6039;52.576;13.348;2023-03-01T16:41:45;3.53;;;2.10;;
11957;SDS011;6039;52.576;13.348;2023-03-01T16:46:49;3.80;;;2.13;;
11957;SDS011;6039;52.576;13.348;2023-03-01T16:51:57;3.30;;;1.87;;
11957;SDS011;6039;52.576;13.348;2023-03-01T16:57:04;6.17;;;2.30;;
11957;SDS011;6039;52.576;13.348;2023-03-01T17:02:08;5.90;;;2.70;;
11957;SDS011;6039;52.576;13.348;2023-03-01T17:07:14;3.90;;;2.33;;
11957;SDS011;6039;52.576;13.348;2023-03-01T17:12:21;4.73;;;2.60;;
11957;SDS011;6039;52.576;13.348;2023-03-01T17:17:25;3.97;;;2.07;;
11957;SDS011;6039;52.576;13.348;2023-03-01T17:22:29;3.80;;;2.17;;
11957;SDS011;6039;52.576;13.348;2023-03-01T17:27:35;3.63;;;2.30;;
11957;SDS011;6039;52.576;13.348;2023-03-01T17:32:40;4.40;;;2.63;;
11957;SDS011;6039;52.576;13.348;2023-03-01T17:37:44;5.47;;;2.63;;
11957;SDS011;6039;52.576;13.348;2023-03-01T17:42:51;5.60;;;3.30;;
11957;SDS011;6039;52.576;13.348;2023-03-01T17:47:56;7.53;;;3.33;;
11957;SDS011;6039;52.576;13.348;2023-03-01T17:53:00;8.00;;;4.57;;
11957;SDS011;6039;52.576;13.348;2023-03-01T17:58:11;7.90;;;4.10;;
11957;SDS011;6039;52.576;13.348;2023-03-01T18:03:21;7.53;;;3.67;;
11957;SDS011;6039;52.576;13.348;2023-03-01T18:08:25;8.67;;;4.43;;
11957;SDS011;6039;52.576;13.348;2023-03-01T18:13:32;6.23;;;4.03;;
11957;SDS011;6039;52.576;13.348;2023-03-01T18:18:36;12.23;;;4.60;;
11957;SDS011;6039;52.576;13.348;2023-03-01T18:23:40;8.63;;;4.87;;
11957;SDS011;6039;52.576;13.348;2023-03-01T18:28:47;10.30;;;6.00;;
11957;SDS011;6039;52.576;13.348;2023-03-01T18:33:52;13.63;;;6.17;;
11957;SDS011;6039;52.576;13.348;2023-03-01T18:38:57;10.80;;;5.37;;
11957;SDS011;6039;52.576;13.348;2023-03-01T18:44:03;10.37;;;5.67;;
11957;SDS011;6039;52.576;13.348;2023-03-01T18:49:09;8.77;;;5.47;;
11957;SDS011;6039;52.576;13.348;2023-03-01T18:56:55;14.57;;;6.30;;
11957;SDS011;6039;52.576;13.348;2023-03-01T19:01:59;10.93;;;5.63;;
11957;SDS011;6039;52.576;13.348;2023-03-01T19:07:03;11.23;;;5.90;;
11957;SDS011;6039;52.576;13.348;2023-03-01T19:12:09;11.03;;;6.60;;
11957;SDS011;6039;52.576;13.348;2023-03-01T19:17:13;13.67;;;6.67;;
11957;SDS011;6039;52.576;13.348;2023-03-01T19:22:18;14.07;;;6.73;;
11957;SDS011;6039;52.576;13.348;2023-03-01T19:27:25;16.43;;;8.13;;
11957;SDS011;6039;52.576;13.348;2023-03-01T19:32:29;15.73;;;6.93;;
11957;SDS011;6039;52.576;13.348;2023-03-01T19:37:33;15.33;;;6.90;;
11957;SDS011;6039;52.576;13.348;2023-03-01T19:42:40;15.17;;;7.60;;
11957;SDS011;6039;52.576;13.348;2023-03-01T19:47:45;15.13;;;7.90;;
11957;SDS011;6039;52.576;13.348;2023-03-01T19:52:51;13.30;;;7.40;;
11957;SDS011;6039;52.576;13.348;2023-03-01T19:57:57;16.67;;;9.50;;
11957;SDS011;6039;52.576;13.348;2023-03-01T20:03:02;15.20;;;9.03;;
11957;SDS011;6039;52.576;13.348;2023-03-01T20:08:06;26.40;;;12.80;;
11957;SDS011;6039;52.576;13.348;2023-03-01T20:13:12;25.27;;;13.57;;
11957;SDS011;6039;52.576;13.348;2023-03-01T20:18:20;27.33;;;13.43;;
11957;SDS011;6039;52.576;13.348;2023-03-01T20:23:24;24.10;;;13.00;;
11957;SDS011;6039;52.576;13.348;2023-03-01T20:28:30;26.73;;;13.23;;
11957;SDS011;6039;52.576;13.348;2023-03-01T20:33:35;30.80;;;15.40;;
11957;SDS011;6039;52.576;13.348;2023-03-01T20:38:39;25.37;;;13.87;;
11957;SDS011;6039;52.576;13.348;2023-03-01T20:43:46;23.77;;;13.40;;
11957;SDS011;6039;52.576;13.348;2023-03-01T20:48:54;23.60;;;14.13;;
11957;SDS011;6039;52.576;13.348;2023-03-01T20:53:58;24.73;;;13.57;;
11957;SDS011;6039;52.576;13.348;2023-03-01T20:59:05;29.90;;;15.20;;
11957;SDS011;6039;52.576;13.348;2023-03-01T21:04:10;26.13;;;13.53;;
11957;SDS011;6039;52.576;13.348;2023-03-01T21:09:16;28.17;;;13.43;;
11957;SDS011;6039;52.576;13.348;2023-03-01T21:14:23;26.47;;;13.97;;
11957;SDS011;6039;52.576;13.348;2023-03-01T21:19:27;25.57;;;12.87;;
11957;SDS011;6039;52.576;13.348;2023-03-01T21:24:31;26.63;;;13.57;;
11957;SDS011;6039;52.576;13.348;2023-03-01T21:29:38;29.27;;;13.77;;
11957;SDS011;6039;52.576;13.348;2023-03-01T21:34:44;28.97;;;15.03;;
11957;SDS011;6039;52.576;13.348;2023-03-01T21:39:48;30.07;;;15.43;;
11957;SDS011;6039;52.576;13.348;2023-03-01T21:44:55;26.93;;;15.27;;
11957;SDS011;6039;52.576;13.348;2023-03-01T21:49:58;27.17;;;14.73;;
11957;SDS011;6039;52.576;13.348;2023-03-01T21:55:03;26.47;;;14.73;;
11957;SDS011;6039;52.576;13.348;2023-03-01T22:00:11;31.37;;;15.93;;
11957;SDS011;6039;52.576;13.348;2023-03-01T22:05:17;26.40;;;14.57;;
11957;SDS011;6039;52.576;13.348;2023-03-01T22:10:21;28.70;;;14.37;;
11957;SDS011;6039;52.576;13.348;2023-03-01T22:15:28;29.07;;;14.27;;
11957;SDS011;6039;52.576;13.348;2023-03-01T22:20:32;28.07;;;15.50;;
11957;SDS011;6039;52.576;13.348;2023-03-01T22:25:40;29.30;;;15.27;;
11957;SDS011;6039;52.576;13.348;2023-03-01T22:30:47;29.37;;;15.40;;
11957;SDS011;6039;52.576;13.348;2023-03-01T22:35:53;27.73;;;15.00;;
11957;SDS011;6039;52.576;13.348;2023-03-01T22:40:58;30.07;;;15.67;;
11957;SDS011;6039;52.576;13.348;2023-03-01T22:46:13;23.90;;;14.00;;
11957;SDS011;6039;52.576;13.348;2023-03-01T22:51:19;26.33;;;14.00;;
11957;SDS011;6039;52.576;13.348;2023-03-01T22:56:24;27.63;;;14.23;;
11957;SDS011;6039;52.576;13.348;2023-03-01T23:01:32;25.57;;;13.27;;
11957;SDS011;6039;52.576;13.348;2023-03-01T23:06:37;28.00;;;12.50;;
11957;SDS011;6039;52.576;13.348;2023-03-01T23:11:50;27.27;;;13.60;;
11957;SDS011;6039;52.576;13.348;2023-03-01T23:16:57;23.70;;;12.27;;
11957;SDS011;6039;52.576;13.348;2023-03-01T23:22:02;20.83;;;11.90;;
11957;SDS011;6039;52.576;13.348;2023-03-01T23:27:06;20.53;;;11.57;;
11957;SDS011;6039;52.576;13.348;2023-03-01T23:32:15;22.10;;;11.90;;
11957;SDS011;6039;52.576;13.348;2023-03-01T23:37:19;21.43;;;10.97;;
11957;SDS011;6039;52.576;13.348;2023-03-01T23:42:23;18.33;;;9.60;;
11957;SDS011;6039;52.576;13.348;2023-03-01T23:47:29;16.67;;;9.60;;
11957;SDS011;6039;52.576;13.348;2023-03-01T23:52:35;17.23;;;8.83;;
11957;SDS011;6039;52.576;13.348;2023-03-01T23:57:40;21.40;;;9.47;;
